Terminal Aerodrome Forecast
Issued by NWS Lake Charles, LA

Current Version | Previous Version | Text Only | Print | Product List | Glossary On
Versions: 1 2 3 4 5 6 7 8 9 10 11 12 13 14 15 16 17 18
461
FTUS44 KLCH 262321
TAFBPT
TAF
KBPT 262321Z 2700/2724 16012G20KT P6SM BKN025 BKN035
      TEMPO 2700/2703 SCT025 SCT035
     FM270300 16010KT P6SM OVC015
     FM271500 17010KT P6SM OVC025=

USA.gov is the U.S. government's official web portal to all federal, state and local government web resources and services.